sensor_id;sensor_type;location;lat;lon;timestamp;temperature;humidity
71177;DHT22;58877;51.992;4.504;2024-03-23T00:53:44;9.01;76.19
71177;DHT22;58877;51.992;4.504;2024-03-23T00:56:13;8.96;76.66
71177;DHT22;58877;51.992;4.504;2024-03-23T00:58:38;8.87;77.29
71177;DHT22;58877;51.992;4.504;2024-03-23T01:01:11;8.81;78.15
71177;DHT22;58877;51.992;4.504;2024-03-23T01:03:37;8.84;78.59
71177;DHT22;58877;51.992;4.504;2024-03-23T01:06:03;8.76;78.85
71177;DHT22;58877;51.992;4.504;2024-03-23T01:08:29;8.85;79.17
71177;DHT22;58877;51.992;4.504;2024-03-23T01:10:55;8.73;79.07
71177;DHT22;58877;51.992;4.504;2024-03-23T01:13:24;8.80;79.09
71177;DHT22;58877;51.992;4.504;2024-03-23T01:15:51;8.81;78.97
71177;DHT22;58877;51.992;4.504;2024-03-23T01:18:18;8.70;78.72
71177;DHT22;58877;51.992;4.504;2024-03-23T01:20:44;8.69;78.78
71177;DHT22;58877;51.992;4.504;2024-03-23T01:23:10;8.69;78.43
71177;DHT22;58877;51.992;4.504;2024-03-23T01:25:36;8.67;78.15
71177;DHT22;58877;51.992;4.504;2024-03-23T01:28:02;8.63;77.56
71177;DHT22;58877;51.992;4.504;2024-03-23T01:30:29;8.52;76.55
71177;DHT22;58877;51.992;4.504;2024-03-23T01:32:56;8.59;76.12
71177;DHT22;58877;51.992;4.504;2024-03-23T01:35:22;8.60;75.98
71177;DHT22;58877;51.992;4.504;2024-03-23T01:37:47;8.60;75.76
71177;DHT22;58877;51.992;4.504;2024-03-23T01:40:13;8.66;75.58
71177;DHT22;58877;51.992;4.504;2024-03-23T01:42:39;8.64;75.89
71177;DHT22;58877;51.992;4.504;2024-03-23T01:45:10;8.73;75.48
71177;DHT22;58877;51.992;4.504;2024-03-23T01:47:36;8.67;75.67
71177;DHT22;58877;51.992;4.504;2024-03-23T01:50:06;8.71;75.54
71177;DHT22;58877;51.992;4.504;2024-03-23T01:52:33;8.69;75.07
71177;DHT22;58877;51.992;4.504;2024-03-23T01:54:58;8.56;74.85
71177;DHT22;58877;51.992;4.504;2024-03-23T01:57:24;8.52;75.18
71177;DHT22;58877;51.992;4.504;2024-03-23T01:59:50;8.45;74.96
71177;DHT22;58877;51.992;4.504;2024-03-23T02:02:16;8.43;74.74
71177;DHT22;58877;51.992;4.504;2024-03-23T02:04:52;8.40;74.54
71177;DHT22;58877;51.992;4.504;2024-03-23T02:07:22;8.45;74.35
71177;DHT22;58877;51.992;4.504;2024-03-23T02:09:55;8.46;73.95
71177;DHT22;58877;51.992;4.504;2024-03-23T02:12:55;8.56;73.79
71177;DHT22;58877;51.992;4.504;2024-03-23T02:19:17;8.47;73.82
71177;DHT22;58877;51.992;4.504;2024-03-23T02:21:46;8.52;74.06
71177;DHT22;58877;51.992;4.504;2024-03-23T02:24:14;8.54;74.00
71177;DHT22;58877;51.992;4.504;2024-03-23T02:26:52;8.46;73.88
71177;DHT22;58877;51.992;4.504;2024-03-23T02:29:20;8.35;74.15
71177;DHT22;58877;51.992;4.504;2024-03-23T02:31:49;8.30;74.47
71177;DHT22;58877;51.992;4.504;2024-03-23T02:34:15;8.32;74.41
71177;DHT22;58877;51.992;4.504;2024-03-23T02:36:41;8.32;74.24
71177;DHT22;58877;51.992;4.504;2024-03-23T02:39:15;8.35;74.17
71177;DHT22;58877;51.992;4.504;2024-03-23T02:41:41;8.25;74.39
71177;DHT22;58877;51.992;4.504;2024-03-23T02:44:10;8.15;74.53
71177;DHT22;58877;51.992;4.504;2024-03-23T02:46:38;8.15;74.76
71177;DHT22;58877;51.992;4.504;2024-03-23T02:49:03;8.10;75.14
71177;DHT22;58877;51.992;4.504;2024-03-23T02:51:30;8.21;74.83
71177;DHT22;58877;51.992;4.504;2024-03-23T02:53:59;8.22;74.70
71177;DHT22;58877;51.992;4.504;2024-03-23T02:56:32;8.19;74.32
71177;DHT22;58877;51.992;4.504;2024-03-23T02:59:07;8.12;74.74
71177;DHT22;58877;51.992;4.504;2024-03-23T03:01:33;8.12;74.63
71177;DHT22;58877;51.992;4.504;2024-03-23T03:04:01;8.09;74.73
71177;DHT22;58877;51.992;4.504;2024-03-23T03:06:27;8.05;74.60
71177;DHT22;58877;51.992;4.504;2024-03-23T03:08:56;8.10;74.57
71177;DHT22;58877;51.992;4.504;2024-03-23T03:11:22;8.09;74.44
71177;DHT22;58877;51.992;4.504;2024-03-23T03:13:48;8.09;74.60
71177;DHT22;58877;51.992;4.504;2024-03-23T03:16:16;8.09;74.44
71177;DHT22;58877;51.992;4.504;2024-03-23T03:18:41;8.06;74.36
71177;DHT22;58877;51.992;4.504;2024-03-23T03:21:13;8.12;74.15
71177;DHT22;58877;51.992;4.504;2024-03-23T03:23:39;8.12;74.06
71177;DHT22;58877;51.992;4.504;2024-03-23T03:26:06;8.03;74.08
71177;DHT22;58877;51.992;4.504;2024-03-23T03:28:34;7.98;73.99
71177;DHT22;58877;51.992;4.504;2024-03-23T03:31:00;7.89;74.38
71177;DHT22;58877;51.992;4.504;2024-03-23T03:33:27;7.85;73.91
71177;DHT22;58877;51.992;4.504;2024-03-23T03:35:56;7.88;73.63
71177;DHT22;58877;51.992;4.504;2024-03-23T03:38:21;7.88;73.68
71177;DHT22;58877;51.992;4.504;2024-03-23T03:40:47;7.89;73.38
71177;DHT22;58877;51.992;4.504;2024-03-23T03:43:13;7.89;73.22
71177;DHT22;58877;51.992;4.504;2024-03-23T03:45:38;7.92;73.11
71177;DHT22;58877;51.992;4.504;2024-03-23T03:48:04;7.91;72.89
71177;DHT22;58877;51.992;4.504;2024-03-23T03:50:30;7.82;72.96
71177;DHT22;58877;51.992;4.504;2024-03-23T03:52:56;7.82;73.07
71177;DHT22;58877;51.992;4.504;2024-03-23T03:55:21;7.92;72.86
71177;DHT22;58877;51.992;4.504;2024-03-23T03:57:47;7.93;72.48
71177;DHT22;58877;51.992;4.504;2024-03-23T04:00:22;7.91;72.22
71177;DHT22;58877;51.992;4.504;2024-03-23T04:02:48;7.86;72.27
71177;DHT22;58877;51.992;4.504;2024-03-23T04:05:14;7.88;72.27
71177;DHT22;58877;51.992;4.504;2024-03-23T04:07:44;7.91;72.13
71177;DHT22;58877;51.992;4.504;2024-03-23T04:10:10;7.93;72.15
71177;DHT22;58877;51.992;4.504;2024-03-23T04:12:42;7.93;72.23
71177;DHT22;58877;51.992;4.504;2024-03-23T04:15:11;7.96;72.29
71177;DHT22;58877;51.992;4.504;2024-03-23T04:17:37;7.95;72.39
71177;DHT22;58877;51.992;4.504;2024-03-23T04:20:04;7.98;72.34
71177;DHT22;58877;51.992;4.504;2024-03-23T04:22:40;7.86;72.77
71177;DHT22;58877;51.992;4.504;2024-03-23T04:25:06;7.85;72.93
71177;DHT22;58877;51.992;4.504;2024-03-23T04:27:33;7.81;73.32
71177;DHT22;58877;51.992;4.504;2024-03-23T04:30:02;7.78;73.40
71177;DHT22;58877;51.992;4.504;2024-03-23T04:32:30;7.77;73.48
71177;DHT22;58877;51.992;4.504;2024-03-23T04:34:56;7.77;73.71
71177;DHT22;58877;51.992;4.504;2024-03-23T04:37:22;7.72;74.02
71177;DHT22;58877;51.992;4.504;2024-03-23T04:39:51;7.72;74.15
71177;DHT22;58877;51.992;4.504;2024-03-23T04:42:18;7.65;74.08
71177;DHT22;58877;51.992;4.504;2024-03-23T04:44:43;7.60;74.33
71177;DHT22;58877;51.992;4.504;2024-03-23T04:47:10;7.61;74.58
71177;DHT22;58877;51.992;4.504;2024-03-23T04:49:36;7.60;74.69
71177;DHT22;58877;51.992;4.504;2024-03-23T04:52:05;7.60;74.61
71177;DHT22;58877;51.992;4.504;2024-03-23T04:54:31;7.58;74.87
71177;DHT22;58877;51.992;4.504;2024-03-23T04:56:59;7.60;74.96
71177;DHT22;58877;51.992;4.504;2024-03-23T04:59:25;7.65;74.96
71177;DHT22;58877;51.992;4.504;2024-03-23T05:01:54;7.60;75.11
71177;DHT22;58877;51.992;4.504;2024-03-23T05:04:20;7.58;75.47
71177;DHT22;58877;51.992;4.504;2024-03-23T05:06:48;7.64;75.48
71177;DHT22;58877;51.992;4.504;2024-03-23T05:09:14;7.65;75.74
71177;DHT22;58877;51.992;4.504;2024-03-23T05:11:40;7.70;75.78
71177;DHT22;58877;51.992;4.504;2024-03-23T05:14:07;7.70;75.77
71177;DHT22;58877;51.992;4.504;2024-03-23T05:16:33;7.70;75.85
71177;DHT22;58877;51.992;4.504;2024-03-23T05:18:59;7.84;75.79
71177;DHT22;58877;51.992;4.504;2024-03-23T05:21:24;7.85;75.62
71177;DHT22;58877;51.992;4.504;2024-03-23T05:23:54;7.86;75.33
71177;DHT22;58877;51.992;4.504;2024-03-23T05:26:25;7.77;75.21
71177;DHT22;58877;51.992;4.504;2024-03-23T05:28:57;7.75;75.45
71177;DHT22;58877;51.992;4.504;2024-03-23T05:31:29;7.77;75.25
71177;DHT22;58877;51.992;4.504;2024-03-23T05:34:01;7.70;74.94
71177;DHT22;58877;51.992;4.504;2024-03-23T05:36:27;7.81;74.69
71177;DHT22;58877;51.992;4.504;2024-03-23T05:38:53;7.81;74.69
71177;DHT22;58877;51.992;4.504;2024-03-23T05:41:20;7.74;74.64
71177;DHT22;58877;51.992;4.504;2024-03-23T05:43:49;7.65;74.97
71177;DHT22;58877;51.992;4.504;2024-03-23T05:46:23;7.71;74.90
71177;DHT22;58877;51.992;4.504;2024-03-23T05:48:50;7.68;74.89
71177;DHT22;58877;51.992;4.504;2024-03-23T05:51:19;7.65;74.96
71177;DHT22;58877;51.992;4.504;2024-03-23T05:53:47;7.57;75.19
71177;DHT22;58877;51.992;4.504;2024-03-23T05:56:13;7.52;75.14
71177;DHT22;58877;51.992;4.504;2024-03-23T05:58:39;7.43;74.93
71177;DHT22;58877;51.992;4.504;2024-03-23T06:01:15;7.46;74.94
71177;DHT22;58877;51.992;4.504;2024-03-23T06:03:44;7.50;75.02
71177;DHT22;58877;51.992;4.504;2024-03-23T06:06:11;7.52;74.78
71177;DHT22;58877;51.992;4.504;2024-03-23T06:08:39;7.57;74.65
71177;DHT22;58877;51.992;4.504;2024-03-23T06:11:07;7.61;74.84
71177;DHT22;58877;51.992;4.504;2024-03-23T06:13:34;7.64;74.44
71177;DHT22;58877;51.992;4.504;2024-03-23T06:16:01;7.57;74.88
71177;DHT22;58877;51.992;4.504;2024-03-23T06:18:27;7.68;74.89
71177;DHT22;58877;51.992;4.504;2024-03-23T06:20:54;7.68;74.80
71177;DHT22;58877;51.992;4.504;2024-03-23T06:23:23;7.78;75.08
71177;DHT22;58877;51.992;4.504;2024-03-23T06:25:49;7.62;74.89
71177;DHT22;58877;51.992;4.504;2024-03-23T06:31:09;7.71;74.39
71177;DHT22;58877;51.992;4.504;2024-03-23T06:33:38;7.78;74.15
71177;DHT22;58877;51.992;4.504;2024-03-23T06:36:10;7.81;74.17
71177;DHT22;58877;51.992;4.504;2024-03-23T06:38:41;7.92;74.21
71177;DHT22;58877;51.992;4.504;2024-03-23T06:41:10;7.96;74.44
71177;DHT22;58877;51.992;4.504;2024-03-23T06:43:37;7.78;74.58
71177;DHT22;58877;51.992;4.504;2024-03-23T06:46:03;7.74;74.83
71177;DHT22;58877;51.992;4.504;2024-03-23T06:48:33;7.79;74.65
71177;DHT22;58877;51.992;4.504;2024-03-23T06:51:06;7.98;74.14
71177;DHT22;58877;51.992;4.504;2024-03-23T06:53:32;7.89;73.56
71177;DHT22;58877;51.992;4.504;2024-03-23T06:55:58;8.02;73.41
71177;DHT22;58877;51.992;4.504;2024-03-23T06:58:25;8.19;73.18
71177;DHT22;58877;51.992;4.504;2024-03-23T07:00:51;8.15;73.12
71177;DHT22;58877;51.992;4.504;2024-03-23T07:03:20;8.15;73.31
71177;DHT22;58877;51.992;4.504;2024-03-23T07:05:47;8.16;73.75
71177;DHT22;58877;51.992;4.504;2024-03-23T07:08:13;8.07;73.50
71177;DHT22;58877;51.992;4.504;2024-03-23T07:10:44;8.12;73.86
71177;DHT22;58877;51.992;4.504;2024-03-23T07:13:10;8.09;73.77
71177;DHT22;58877;51.992;4.504;2024-03-23T07:15:39;8.01;73.56
71177;DHT22;58877;51.992;4.504;2024-03-23T07:18:04;8.10;73.54
71177;DHT22;58877;51.992;4.504;2024-03-23T07:20:34;8.09;72.77
71177;DHT22;58877;51.992;4.504;2024-03-23T07:23:00;8.01;72.97
71177;DHT22;58877;51.992;4.504;2024-03-23T07:25:27;8.23;72.81
71177;DHT22;58877;51.992;4.504;2024-03-23T07:27:57;8.21;71.99
71177;DHT22;58877;51.992;4.504;2024-03-23T07:30:27;8.23;72.35
71177;DHT22;58877;51.992;4.504;2024-03-23T07:33:01;8.10;73.51
71177;DHT22;58877;51.992;4.504;2024-03-23T07:35:27;8.29;73.61
71177;DHT22;58877;51.992;4.504;2024-03-23T07:37:58;8.09;73.39
71177;DHT22;58877;51.992;4.504;2024-03-23T07:40:31;8.10;73.13
71177;DHT22;58877;51.992;4.504;2024-03-23T07:45:42;8.15;72.76
71177;DHT22;58877;51.992;4.504;2024-03-23T07:48:11;8.03;72.15
71177;DHT22;58877;51.992;4.504;2024-03-23T07:50:41;7.99;72.09
71177;DHT22;58877;51.992;4.504;2024-03-23T07:53:10;8.01;72.61
71177;DHT22;58877;51.992;4.504;2024-03-23T07:59:00;7.93;72.13
71177;DHT22;58877;51.992;4.504;2024-03-23T08:01:40;8.10;71.97
71177;DHT22;58877;51.992;4.504;2024-03-23T08:04:14;8.35;72.17
71177;DHT22;58877;51.992;4.504;2024-03-23T08:06:52;8.53;71.35
71177;DHT22;58877;51.992;4.504;2024-03-23T08:09:33;8.59;70.52
71177;DHT22;58877;51.992;4.504;2024-03-23T08:12:02;8.57;71.23
71177;DHT22;58877;51.992;4.504;2024-03-23T08:14:32;8.52;70.68
71177;DHT22;58877;51.992;4.504;2024-03-23T08:16:58;8.53;71.20
71177;DHT22;58877;51.992;4.504;2024-03-23T08:19:23;8.46;70.68
71177;DHT22;58877;51.992;4.504;2024-03-23T08:21:56;8.33;69.92
71177;DHT22;58877;51.992;4.504;2024-03-23T08:24:25;8.17;69.53
71177;DHT22;58877;51.992;4.504;2024-03-23T08:26:51;8.29;70.04
71177;DHT22;58877;51.992;4.504;2024-03-23T08:29:20;8.52;70.15
71177;DHT22;58877;51.992;4.504;2024-03-23T08:31:45;8.76;68.90
71177;DHT22;58877;51.992;4.504;2024-03-23T08:34:20;8.85;68.09
71177;DHT22;58877;51.992;4.504;2024-03-23T08:36:51;8.90;67.25
71177;DHT22;58877;51.992;4.504;2024-03-23T08:39:20;8.77;67.85
71177;DHT22;58877;51.992;4.504;2024-03-23T08:41:46;8.60;67.71
71177;DHT22;58877;51.992;4.504;2024-03-23T08:44:35;8.67;68.03
71177;DHT22;58877;51.992;4.504;2024-03-23T08:48:02;8.35;69.97
71177;DHT22;58877;51.992;4.504;2024-03-23T08:50:28;7.89;73.78
71177;DHT22;58877;51.992;4.504;2024-03-23T08:52:54;7.74;73.40
71177;DHT22;58877;51.992;4.504;2024-03-23T08:55:22;7.84;73.14
71177;DHT22;58877;51.992;4.504;2024-03-23T08:57:51;8.03;72.92
71177;DHT22;58877;51.992;4.504;2024-03-23T09:00:23;8.13;72.91
71177;DHT22;58877;51.992;4.504;2024-03-23T09:02:59;8.06;72.24
71177;DHT22;58877;51.992;4.504;2024-03-23T09:05:29;8.35;72.33
71177;DHT22;58877;51.992;4.504;2024-03-23T09:08:01;8.47;70.02
71177;DHT22;58877;51.992;4.504;2024-03-23T09:10:27;8.64;70.70
71177;DHT22;58877;51.992;4.504;2024-03-23T09:13:10;8.49;69.85
71177;DHT22;58877;51.992;4.504;2024-03-23T09:15:59;8.45;69.23
71177;DHT22;58877;51.992;4.504;2024-03-23T09:18:31;8.40;68.53
71177;DHT22;58877;51.992;4.504;2024-03-23T09:21:01;8.28;68.58
71177;DHT22;58877;51.992;4.504;2024-03-23T09:26:27;8.35;69.38
71177;DHT22;58877;51.992;4.504;2024-03-23T09:28:55;8.33;68.00
71177;DHT22;58877;51.992;4.504;2024-03-23T09:31:21;8.39;69.04
71177;DHT22;58877;51.992;4.504;2024-03-23T09:33:50;8.57;68.58
71177;DHT22;58877;51.992;4.504;2024-03-23T09:36:25;8.49;67.91
71177;DHT22;58877;51.992;4.504;2024-03-23T09:38:54;8.30;68.59
71177;DHT22;58877;51.992;4.504;2024-03-23T09:41:33;8.37;68.43
71177;DHT22;58877;51.992;4.504;2024-03-23T09:44:03;8.46;67.83
71177;DHT22;58877;51.992;4.504;2024-03-23T09:46:31;8.67;66.92
71177;DHT22;58877;51.992;4.504;2024-03-23T09:49:00;8.57;66.29
71177;DHT22;58877;51.992;4.504;2024-03-23T09:51:39;8.67;66.54
71177;DHT22;58877;51.992;4.504;2024-03-23T09:54:06;8.69;67.27
71177;DHT22;58877;51.992;4.504;2024-03-23T09:56:32;8.63;66.97
71177;DHT22;58877;51.992;4.504;2024-03-23T09:59:07;8.61;67.13
71177;DHT22;58877;51.992;4.504;2024-03-23T10:01:33;8.67;67.83
71177;DHT22;58877;51.992;4.504;2024-03-23T10:03:59;8.81;68.06
71177;DHT22;58877;51.992;4.504;2024-03-23T10:06:28;8.90;67.93
71177;DHT22;58877;51.992;4.504;2024-03-23T10:09:16;8.96;68.11
71177;DHT22;58877;51.992;4.504;2024-03-23T10:11:51;9.36;67.32
71177;DHT22;58877;51.992;4.504;2024-03-23T10:14:32;9.36;65.44
71177;DHT22;58877;51.992;4.504;2024-03-23T10:17:22;8.97;65.40
71177;DHT22;58877;51.992;4.504;2024-03-23T10:19:57;8.71;67.32
71177;DHT22;58877;51.992;4.504;2024-03-23T10:22:37;8.74;66.12
71177;DHT22;58877;51.992;4.504;2024-03-23T10:25:22;8.70;65.05
71177;DHT22;58877;51.992;4.504;2024-03-23T10:27:59;8.73;66.05
71177;DHT22;58877;51.992;4.504;2024-03-23T10:30:29;8.60;66.41
71177;DHT22;58877;51.992;4.504;2024-03-23T10:33:08;8.54;66.41
71177;DHT22;58877;51.992;4.504;2024-03-23T10:35:54;8.88;66.23
71177;DHT22;58877;51.992;4.504;2024-03-23T10:38:50;9.35;66.40
71177;DHT22;58877;51.992;4.504;2024-03-23T10:41:31;9.14;63.12
71177;DHT22;58877;51.992;4.504;2024-03-23T10:44:02;9.12;63.44
71177;DHT22;58877;51.992;4.504;2024-03-23T10:46:33;9.21;61.07
71177;DHT22;58877;51.992;4.504;2024-03-23T10:49:15;9.10;62.70
71177;DHT22;58877;51.992;4.504;2024-03-23T10:51:55;9.22;63.42
71177;DHT22;58877;51.992;4.504;2024-03-23T10:54:27;9.15;62.02
71177;DHT22;58877;51.992;4.504;2024-03-23T10:57:03;9.12;61.91
71177;DHT22;58877;51.992;4.504;2024-03-23T10:59:31;9.10;62.35
71177;DHT22;58877;51.992;4.504;2024-03-23T11:02:19;9.38;63.28
71177;DHT22;58877;51.992;4.504;2024-03-23T11:04:46;9.49;62.79
71177;DHT22;58877;51.992;4.504;2024-03-23T11:08:07;9.44;62.87
71177;DHT22;58877;51.992;4.504;2024-03-23T11:10:36;9.52;63.19
71177;DHT22;58877;51.992;4.504;2024-03-23T11:13:22;9.31;63.46
71177;DHT22;58877;51.992;4.504;2024-03-23T11:15:49;9.32;62.85
71177;DHT22;58877;51.992;4.504;2024-03-23T11:18:24;9.35;61.52
71177;DHT22;58877;51.992;4.504;2024-03-23T11:20:50;9.62;60.81
71177;DHT22;58877;51.992;4.504;2024-03-23T11:23:28;10.05;59.85
71177;DHT22;58877;51.992;4.504;2024-03-23T11:25:55;10.10;59.69
71177;DHT22;58877;51.992;4.504;2024-03-23T11:28:25;9.87;58.57
71177;DHT22;58877;51.992;4.504;2024-03-23T11:31:00;9.66;58.60
71177;DHT22;58877;51.992;4.504;2024-03-23T11:33:29;9.44;59.94
71177;DHT22;58877;51.992;4.504;2024-03-23T11:35:55;9.42;60.19
71177;DHT22;58877;51.992;4.504;2024-03-23T11:38:21;9.75;61.79
71177;DHT22;58877;51.992;4.504;2024-03-23T11:40:50;10.21;62.06
71177;DHT22;58877;51.992;4.504;2024-03-23T11:43:28;9.99;60.53
71177;DHT22;58877;51.992;4.504;2024-03-23T11:46:27;9.83;60.64
71177;DHT22;58877;51.992;4.504;2024-03-23T11:52:12;10.02;60.38
71177;DHT22;58877;51.992;4.504;2024-03-23T11:58:48;9.82;62.65
71177;DHT22;58877;51.992;4.504;2024-03-23T12:01:40;9.74;59.41
71177;DHT22;58877;51.992;4.504;2024-03-23T12:04:28;9.35;60.00
71177;DHT22;58877;51.992;4.504;2024-03-23T12:07:21;9.44;58.99
71177;DHT22;58877;51.992;4.504;2024-03-23T12:10:06;9.30;59.79
71177;DHT22;58877;51.992;4.504;2024-03-23T12:12:35;9.27;61.27
71177;DHT22;58877;51.992;4.504;2024-03-23T12:15:05;9.38;61.63
71177;DHT22;58877;51.992;4.504;2024-03-23T12:17:40;9.30;61.64
71177;DHT22;58877;51.992;4.504;2024-03-23T12:20:09;9.38;61.07
71177;DHT22;58877;51.992;4.504;2024-03-23T12:22:35;9.59;60.81
71177;DHT22;58877;51.992;4.504;2024-03-23T12:25:02;9.52;62.24
71177;DHT22;58877;51.992;4.504;2024-03-23T12:27:38;9.65;63.19
71177;DHT22;58877;51.992;4.504;2024-03-23T12:30:08;9.52;61.90
71177;DHT22;58877;51.992;4.504;2024-03-23T12:32:34;9.58;62.46
71177;DHT22;58877;51.992;4.504;2024-03-23T12:35:01;9.58;61.41
71177;DHT22;58877;51.992;4.504;2024-03-23T12:37:27;9.49;61.76
71177;DHT22;58877;51.992;4.504;2024-03-23T12:40:02;9.31;62.39
71177;DHT22;58877;51.992;4.504;2024-03-23T12:42:32;9.72;62.73
71177;DHT22;58877;51.992;4.504;2024-03-23T12:44:58;9.89;62.08
71177;DHT22;58877;51.992;4.504;2024-03-23T12:47:24;9.95;60.95
71177;DHT22;58877;51.992;4.504;2024-03-23T12:49:56;10.17;58.84
71177;DHT22;58877;51.992;4.504;2024-03-23T12:52:22;10.03;59.38
71177;DHT22;58877;51.992;4.504;2024-03-23T12:54:49;10.09;58.85
71177;DHT22;58877;51.992;4.504;2024-03-23T12:57:16;10.17;59.24
71177;DHT22;58877;51.992;4.504;2024-03-23T12:59:42;9.90;57.94
71177;DHT22;58877;51.992;4.504;2024-03-23T13:02:08;9.93;59.23
71177;DHT22;58877;51.992;4.504;2024-03-23T13:04:39;9.55;61.85
71177;DHT22;58877;51.992;4.504;2024-03-23T13:07:05;9.05;63.94
71177;DHT22;58877;51.992;4.504;2024-03-23T13:09:31;8.91;63.75
71177;DHT22;58877;51.992;4.504;2024-03-23T13:11:57;8.92;63.67
71177;DHT22;58877;51.992;4.504;2024-03-23T13:14:23;9.25;62.16
71177;DHT22;58877;51.992;4.504;2024-03-23T13:16:49;9.21;61.02
71177;DHT22;58877;51.992;4.504;2024-03-23T13:19:15;9.18;60.62
71177;DHT22;58877;51.992;4.504;2024-03-23T13:21:47;9.25;60.15
71177;DHT22;58877;51.992;4.504;2024-03-23T13:24:40;9.08;59.45
71177;DHT22;58877;51.992;4.504;2024-03-23T13:27:06;9.15;60.33
71177;DHT22;58877;51.992;4.504;2024-03-23T13:29:36;9.39;60.22
71177;DHT22;58877;51.992;4.504;2024-03-23T13:32:20;9.36;60.35
71177;DHT22;58877;51.992;4.504;2024-03-23T13:34:45;9.35;60.64
71177;DHT22;58877;51.992;4.504;2024-03-23T13:37:22;9.35;61.17
71177;DHT22;58877;51.992;4.504;2024-03-23T13:39:54;9.34;62.29
71177;DHT22;58877;51.992;4.504;2024-03-23T13:42:20;9.18;61.14
71177;DHT22;58877;51.992;4.504;2024-03-23T13:44:47;9.20;62.11
71177;DHT22;58877;51.992;4.504;2024-03-23T13:47:15;9.25;63.25
71177;DHT22;58877;51.992;4.504;2024-03-23T13:49:46;8.99;62.37
71177;DHT22;58877;51.992;4.504;2024-03-23T13:52:22;8.94;62.61
71177;DHT22;58877;51.992;4.504;2024-03-23T13:58:47;8.63;67.06
71177;DHT22;58877;51.992;4.504;2024-03-23T14:01:21;8.28;67.06
71177;DHT22;58877;51.992;4.504;2024-03-23T14:03:50;8.02;66.89
71177;DHT22;58877;51.992;4.504;2024-03-23T14:06:19;8.21;67.59
71177;DHT22;58877;51.992;4.504;2024-03-23T14:08:49;8.43;66.66
71177;DHT22;58877;51.992;4.504;2024-03-23T14:11:42;8.67;66.85
71177;DHT22;58877;51.992;4.504;2024-03-23T14:14:29;8.53;67.20
71177;DHT22;58877;51.992;4.504;2024-03-23T14:17:07;8.52;67.88
71177;DHT22;58877;51.992;4.504;2024-03-23T14:19:33;8.87;69.20
71177;DHT22;58877;51.992;4.504;2024-03-23T14:21:59;9.18;68.86
71177;DHT22;58877;51.992;4.504;2024-03-23T14:24:24;9.11;69.43
71177;DHT22;58877;51.992;4.504;2024-03-23T14:26:50;9.32;69.11
71177;DHT22;58877;51.992;4.504;2024-03-23T14:29:17;9.71;68.22
71177;DHT22;58877;51.992;4.504;2024-03-23T14:31:43;9.75;67.26
71177;DHT22;58877;51.992;4.504;2024-03-23T14:34:12;9.49;66.33
71177;DHT22;58877;51.992;4.504;2024-03-23T14:36:41;9.72;66.75
71177;DHT22;58877;51.992;4.504;2024-03-23T14:39:07;9.59;67.13
71177;DHT22;58877;51.992;4.504;2024-03-23T14:41:36;9.32;67.41
71177;DHT22;58877;51.992;4.504;2024-03-23T14:44:02;9.25;67.96
71177;DHT22;58877;51.992;4.504;2024-03-23T14:46:28;9.58;67.18
71177;DHT22;58877;51.992;4.504;2024-03-23T14:48:54;9.52;66.35
71177;DHT22;58877;51.992;4.504;2024-03-23T14:51:20;9.56;65.74
71177;DHT22;58877;51.992;4.504;2024-03-23T14:53:47;9.85;64.65
71177;DHT22;58877;51.992;4.504;2024-03-23T14:56:13;9.93;59.88
71177;DHT22;58877;51.992;4.504;2024-03-23T14:58:41;9.97;58.66
71177;DHT22;58877;51.992;4.504;2024-03-23T15:01:08;10.61;57.84
71177;DHT22;58877;51.992;4.504;2024-03-23T15:03:36;11.16;56.73
71177;DHT22;58877;51.992;4.504;2024-03-23T15:06:04;10.77;57.47
71177;DHT22;58877;51.992;4.504;2024-03-23T15:08:30;11.19;56.23
71177;DHT22;58877;51.992;4.504;2024-03-23T15:11:00;11.02;56.30
71177;DHT22;58877;51.992;4.504;2024-03-23T15:13:34;10.47;58.99
71177;DHT22;58877;51.992;4.504;2024-03-23T15:16:06;10.92;57.89
71177;DHT22;58877;51.992;4.504;2024-03-23T15:18:32;11.67;56.51
71177;DHT22;58877;51.992;4.504;2024-03-23T15:21:10;11.43;56.25
71177;DHT22;58877;51.992;4.504;2024-03-23T15:27:10;10.10;60.10
71177;DHT22;58877;51.992;4.504;2024-03-23T15:29:38;9.99;61.11
71177;DHT22;58877;51.992;4.504;2024-03-23T15:32:08;9.66;61.72
71177;DHT22;58877;51.992;4.504;2024-03-23T15:34:34;9.85;62.39
71177;DHT22;58877;51.992;4.504;2024-03-23T15:36:59;10.12;62.30
71177;DHT22;58877;51.992;4.504;2024-03-23T15:39:25;11.18;61.15
71177;DHT22;58877;51.992;4.504;2024-03-23T15:41:51;11.72;58.38
71177;DHT22;58877;51.992;4.504;2024-03-23T15:44:17;12.21;57.52
71177;DHT22;58877;51.992;4.504;2024-03-23T15:46:45;12.45;55.52
71177;DHT22;58877;51.992;4.504;2024-03-23T15:49:12;12.83;53.89
71177;DHT22;58877;51.992;4.504;2024-03-23T15:51:38;13.01;53.41
71177;DHT22;58877;51.992;4.504;2024-03-23T15:54:34;12.68;54.83
71177;DHT22;58877;51.992;4.504;2024-03-23T15:57:02;12.44;55.94
71177;DHT22;58877;51.992;4.504;2024-03-23T15:59:28;11.19;58.55
71177;DHT22;58877;51.992;4.504;2024-03-23T16:01:57;10.50;60.48
71177;DHT22;58877;51.992;4.504;2024-03-23T16:04:24;10.90;58.41
71177;DHT22;58877;51.992;4.504;2024-03-23T16:06:50;10.84;60.25
71177;DHT22;58877;51.992;4.504;2024-03-23T16:09:16;11.46;57.43
71177;DHT22;58877;51.992;4.504;2024-03-23T16:12:07;10.77;57.32
71177;DHT22;58877;51.992;4.504;2024-03-23T16:14:33;10.85;57.94
71177;DHT22;58877;51.992;4.504;2024-03-23T16:16:59;11.26;55.98
71177;DHT22;58877;51.992;4.504;2024-03-23T16:19:25;10.90;56.34
71177;DHT22;58877;51.992;4.504;2024-03-23T16:21:50;10.19;58.25
71177;DHT22;58877;51.992;4.504;2024-03-23T16:24:17;9.89;59.82
71177;DHT22;58877;51.992;4.504;2024-03-23T16:26:43;10.02;59.82
71177;DHT22;58877;51.992;4.504;2024-03-23T16:29:33;10.30;59.29
71177;DHT22;58877;51.992;4.504;2024-03-23T16:32:01;10.07;60.63
71177;DHT22;58877;51.992;4.504;2024-03-23T16:34:27;9.90;61.05
71177;DHT22;58877;51.992;4.504;2024-03-23T16:36:52;9.89;61.15
71177;DHT22;58877;51.992;4.504;2024-03-23T16:39:27;9.69;60.93
71177;DHT22;58877;51.992;4.504;2024-03-23T16:41:53;9.61;61.57
71177;DHT22;58877;51.992;4.504;2024-03-23T16:44:19;9.52;62.06
71177;DHT22;58877;51.992;4.504;2024-03-23T16:46:49;9.42;62.02
71177;DHT22;58877;51.992;4.504;2024-03-23T16:49:16;9.18;63.49
71177;DHT22;58877;51.992;4.504;2024-03-23T16:51:41;9.11;63.42
71177;DHT22;58877;51.992;4.504;2024-03-23T16:54:17;8.53;60.33
71177;DHT22;58877;51.992;4.504;2024-03-23T16:56:46;8.21;63.98
71177;DHT22;58877;51.992;4.504;2024-03-23T16:59:40;8.61;65.15
71177;DHT22;58877;51.992;4.504;2024-03-23T17:02:06;8.92;65.15
71177;DHT22;58877;51.992;4.504;2024-03-23T17:04:41;9.79;62.69
71177;DHT22;58877;51.992;4.504;2024-03-23T17:07:07;10.36;61.44
71177;DHT22;58877;51.992;4.504;2024-03-23T17:09:33;10.34;60.95
71177;DHT22;58877;51.992;4.504;2024-03-23T17:11:59;10.61;60.75
71177;DHT22;58877;51.992;4.504;2024-03-23T17:14:26;10.53;59.74
71177;DHT22;58877;51.992;4.504;2024-03-23T17:16:51;10.07;60.93
71177;DHT22;58877;51.992;4.504;2024-03-23T17:19:17;9.61;63.20
71177;DHT22;58877;51.992;4.504;2024-03-23T17:21:46;9.35;65.19
71177;DHT22;58877;51.992;4.504;2024-03-23T17:24:12;9.31;66.17
71177;DHT22;58877;51.992;4.504;2024-03-23T17:26:40;9.35;66.64